sensor_id;sensor_type;location;lat;lon;timestamp;temperature;humidity
34434;DHT22;34290;48.562;13.384;2023-07-31T00:01:57;14.60;99.90
34434;DHT22;34290;48.562;13.384;2023-07-31T00:04:24;14.60;99.90
34434;DHT22;34290;48.562;13.384;2023-07-31T00:06:52;14.50;99.90
34434;DHT22;34290;48.562;13.384;2023-07-31T00:09:19;14.30;99.90
34434;DHT22;34290;48.562;13.384;2023-07-31T00:11:46;14.20;99.90
34434;DHT22;34290;48.562;13.384;2023-07-31T00:16:40;14.00;99.90
34434;DHT22;34290;48.562;13.384;2023-07-31T00:21:35;14.00;99.90
34434;DHT22;34290;48.562;13.384;2023-07-31T00:24:03;13.90;99.90
34434;DHT22;34290;48.562;13.384;2023-07-31T00:26:30;13.90;99.90
34434;DHT22;34290;48.562;13.384;2023-07-31T00:28:57;13.80;99.90
34434;DHT22;34290;48.562;13.384;2023-07-31T00:31:24;13.80;99.90
34434;DHT22;34290;48.562;13.384;2023-07-31T00:33:51;13.70;99.90
34434;DHT22;34290;48.562;13.384;2023-07-31T00:36:18;13.80;99.90
34434;DHT22;34290;48.562;13.384;2023-07-31T00:38:45;13.70;99.90
34434;DHT22;34290;48.562;13.384;2023-07-31T00:41:13;13.70;99.90
34434;DHT22;34290;48.562;13.384;2023-07-31T00:43:40;13.80;99.90
34434;DHT22;34290;48.562;13.384;2023-07-31T00:46:07;13.80;99.90
34434;DHT22;34290;48.562;13.384;2023-07-31T00:48:35;13.80;99.90
34434;DHT22;34290;48.562;13.384;2023-07-31T00:53:29;13.70;99.90
34434;DHT22;34290;48.562;13.384;2023-07-31T00:58:25;13.60;99.90
34434;DHT22;34290;48.562;13.384;2023-07-31T01:00:52;13.60;99.90
34434;DHT22;34290;48.562;13.384;2023-07-31T01:03:19;13.50;99.90
34434;DHT22;34290;48.562;13.384;2023-07-31T01:05:51;13.50;99.90
34434;DHT22;34290;48.562;13.384;2023-07-31T01:08:26;13.40;99.90
34434;DHT22;34290;48.562;13.384;2023-07-31T01:10:57;13.30;99.90
34434;DHT22;34290;48.562;13.384;2023-07-31T01:13:28;13.20;99.90
34434;DHT22;34290;48.562;13.384;2023-07-31T01:15:55;13.20;99.90
34434;DHT22;34290;48.562;13.384;2023-07-31T01:18:22;13.10;99.90
34434;DHT22;34290;48.562;13.384;2023-07-31T01:20:54;13.10;99.90
34434;DHT22;34290;48.562;13.384;2023-07-31T01:23:37;12.90;99.90
34434;DHT22;34290;48.562;13.384;2023-07-31T01:26:12;12.90;99.90
34434;DHT22;34290;48.562;13.384;2023-07-31T01:28:50;12.90;99.90
34434;DHT22;34290;48.562;13.384;2023-07-31T01:31:20;12.80;99.90
34434;DHT22;34290;48.562;13.384;2023-07-31T01:33:50;12.70;99.90
34434;DHT22;34290;48.562;13.384;2023-07-31T01:36:17;12.60;99.90
34434;DHT22;34290;48.562;13.384;2023-07-31T01:38:44;12.60;99.90
34434;DHT22;34290;48.562;13.384;2023-07-31T01:41:13;12.60;99.90
34434;DHT22;34290;48.562;13.384;2023-07-31T01:43:40;12.50;99.90
34434;DHT22;34290;48.562;13.384;2023-07-31T01:46:06;12.50;99.90
34434;DHT22;34290;48.562;13.384;2023-07-31T01:48:33;12.50;99.90
34434;DHT22;34290;48.562;13.384;2023-07-31T01:51:02;12.40;99.90
34434;DHT22;34290;48.562;13.384;2023-07-31T01:53:32;12.30;99.90
34434;DHT22;34290;48.562;13.384;2023-07-31T01:55:59;12.30;99.90
34434;DHT22;34290;48.562;13.384;2023-07-31T01:58:27;12.30;99.90
34434;DHT22;34290;48.562;13.384;2023-07-31T02:00:54;12.20;99.90
34434;DHT22;34290;48.562;13.384;2023-07-31T02:05:48;12.10;99.90
34434;DHT22;34290;48.562;13.384;2023-07-31T02:08:16;12.20;99.90
34434;DHT22;34290;48.562;13.384;2023-07-31T02:10:43;12.10;99.90
34434;DHT22;34290;48.562;13.384;2023-07-31T02:13:10;12.20;99.90
34434;DHT22;34290;48.562;13.384;2023-07-31T02:15:38;12.30;99.90
34434;DHT22;34290;48.562;13.384;2023-07-31T02:18:05;12.40;99.90
34434;DHT22;34290;48.562;13.384;2023-07-31T02:20:34;12.40;99.90
34434;DHT22;34290;48.562;13.384;2023-07-31T02:23:01;12.40;99.90
34434;DHT22;34290;48.562;13.384;2023-07-31T02:25:28;12.30;99.90
34434;DHT22;34290;48.562;13.384;2023-07-31T02:27:56;12.30;99.90
34434;DHT22;34290;48.562;13.384;2023-07-31T02:30:23;12.30;99.90
34434;DHT22;34290;48.562;13.384;2023-07-31T02:32:52;12.20;99.90
34434;DHT22;34290;48.562;13.384;2023-07-31T02:35:18;12.20;99.90
34434;DHT22;34290;48.562;13.384;2023-07-31T02:37:44;12.00;99.90
34434;DHT22;34290;48.562;13.384;2023-07-31T02:40:12;12.10;99.90
34434;DHT22;34290;48.562;13.384;2023-07-31T02:42:39;12.30;99.90
34434;DHT22;34290;48.562;13.384;2023-07-31T02:45:07;12.30;99.90
34434;DHT22;34290;48.562;13.384;2023-07-31T02:47:34;12.20;99.90
34434;DHT22;34290;48.562;13.384;2023-07-31T02:50:03;12.10;99.90
34434;DHT22;34290;48.562;13.384;2023-07-31T02:52:30;12.20;99.90
34434;DHT22;34290;48.562;13.384;2023-07-31T02:54:57;12.10;99.90
34434;DHT22;34290;48.562;13.384;2023-07-31T02:57:24;12.20;99.90
34434;DHT22;34290;48.562;13.384;2023-07-31T02:59:51;12.20;99.90
34434;DHT22;34290;48.562;13.384;2023-07-31T03:02:18;12.20;99.90
34434;DHT22;34290;48.562;13.384;2023-07-31T03:04:45;12.20;99.90
34434;DHT22;34290;48.562;13.384;2023-07-31T03:07:13;12.20;99.90
34434;DHT22;34290;48.562;13.384;2023-07-31T03:09:40;12.10;99.90
34434;DHT22;34290;48.562;13.384;2023-07-31T03:12:08;12.00;99.90
34434;DHT22;34290;48.562;13.384;2023-07-31T03:14:35;12.00;99.90
34434;DHT22;34290;48.562;13.384;2023-07-31T03:17:02;11.90;99.90
34434;DHT22;34290;48.562;13.384;2023-07-31T03:19:30;11.90;99.90
34434;DHT22;34290;48.562;13.384;2023-07-31T03:21:58;11.80;99.90
34434;DHT22;34290;48.562;13.384;2023-07-31T03:24:26;11.80;99.90
34434;DHT22;34290;48.562;13.384;2023-07-31T03:26:53;11.70;99.90
34434;DHT22;34290;48.562;13.384;2023-07-31T03:29:20;11.70;99.90
34434;DHT22;34290;48.562;13.384;2023-07-31T03:31:47;11.60;99.90
34434;DHT22;34290;48.562;13.384;2023-07-31T03:34:14;11.50;99.90
34434;DHT22;34290;48.562;13.384;2023-07-31T03:36:40;11.50;99.90
34434;DHT22;34290;48.562;13.384;2023-07-31T03:39:07;11.50;99.90
34434;DHT22;34290;48.562;13.384;2023-07-31T03:41:36;11.50;99.90
34434;DHT22;34290;48.562;13.384;2023-07-31T03:44:03;11.60;99.90
34434;DHT22;34290;48.562;13.384;2023-07-31T03:46:30;11.50;99.90
34434;DHT22;34290;48.562;13.384;2023-07-31T03:48:57;11.50;99.90
34434;DHT22;34290;48.562;13.384;2023-07-31T03:51:24;11.50;99.90
34434;DHT22;34290;48.562;13.384;2023-07-31T03:53:51;11.60;99.90
34434;DHT22;34290;48.562;13.384;2023-07-31T03:56:17;11.60;99.90
34434;DHT22;34290;48.562;13.384;2023-07-31T03:58:46;11.60;99.90
34434;DHT22;34290;48.562;13.384;2023-07-31T04:01:13;11.60;99.90
34434;DHT22;34290;48.562;13.384;2023-07-31T04:03:40;11.60;99.90
34434;DHT22;34290;48.562;13.384;2023-07-31T04:06:07;11.60;99.90
34434;DHT22;34290;48.562;13.384;2023-07-31T04:08:34;11.60;99.90
34434;DHT22;34290;48.562;13.384;2023-07-31T04:11:00;11.60;99.90
34434;DHT22;34290;48.562;13.384;2023-07-31T04:13:29;11.50;99.90
34434;DHT22;34290;48.562;13.384;2023-07-31T04:15:57;11.50;99.90
34434;DHT22;34290;48.562;13.384;2023-07-31T04:18:25;11.60;99.90
34434;DHT22;34290;48.562;13.384;2023-07-31T04:20:52;11.50;99.90
34434;DHT22;34290;48.562;13.384;2023-07-31T04:23:19;11.60;99.90
34434;DHT22;34290;48.562;13.384;2023-07-31T04:25:46;11.50;99.90
34434;DHT22;34290;48.562;13.384;2023-07-31T04:28:16;11.50;99.90
34434;DHT22;34290;48.562;13.384;2023-07-31T04:30:43;11.60;99.90
34434;DHT22;34290;48.562;13.384;2023-07-31T04:33:11;11.60;99.90
34434;DHT22;34290;48.562;13.384;2023-07-31T04:35:38;11.80;99.90
34434;DHT22;34290;48.562;13.384;2023-07-31T04:38:05;11.80;99.90
34434;DHT22;34290;48.562;13.384;2023-07-31T04:40:32;12.10;99.90
34434;DHT22;34290;48.562;13.384;2023-07-31T04:42:59;12.30;99.90
34434;DHT22;34290;48.562;13.384;2023-07-31T04:45:26;12.50;99.90
34434;DHT22;34290;48.562;13.384;2023-07-31T04:47:53;12.60;99.90
34434;DHT22;34290;48.562;13.384;2023-07-31T04:50:21;13.40;99.90
34434;DHT22;34290;48.562;13.384;2023-07-31T04:52:48;13.50;99.90
34434;DHT22;34290;48.562;13.384;2023-07-31T04:55:15;14.10;99.90
34434;DHT22;34290;48.562;13.384;2023-07-31T04:57:42;14.30;99.90
34434;DHT22;34290;48.562;13.384;2023-07-31T05:00:09;14.60;99.90
34434;DHT22;34290;48.562;13.384;2023-07-31T05:02:36;15.00;99.90
34434;DHT22;34290;48.562;13.384;2023-07-31T05:05:04;15.70;99.90
34434;DHT22;34290;48.562;13.384;2023-07-31T05:07:32;16.30;99.90
34434;DHT22;34290;48.562;13.384;2023-07-31T05:09:59;16.30;99.90
34434;DHT22;34290;48.562;13.384;2023-07-31T05:12:26;17.00;99.90
34434;DHT22;34290;48.562;13.384;2023-07-31T05:14:53;19.60;99.90
34434;DHT22;34290;48.562;13.384;2023-07-31T05:17:20;19.70;99.90
34434;DHT22;34290;48.562;13.384;2023-07-31T05:19:46;21.50;99.90
34434;DHT22;34290;48.562;13.384;2023-07-31T05:22:13;22.20;99.90
34434;DHT22;34290;48.562;13.384;2023-07-31T05:24:42;22.00;99.90
34434;DHT22;34290;48.562;13.384;2023-07-31T05:27:09;22.50;99.90
34434;DHT22;34290;48.562;13.384;2023-07-31T05:29:36;22.60;99.90
34434;DHT22;34290;48.562;13.384;2023-07-31T05:32:03;21.80;99.90
34434;DHT22;34290;48.562;13.384;2023-07-31T05:34:30;22.40;99.90
34434;DHT22;34290;48.562;13.384;2023-07-31T05:36:57;24.30;99.80
34434;DHT22;34290;48.562;13.384;2023-07-31T05:39:24;23.90;99.50
34434;DHT22;34290;48.562;13.384;2023-07-31T05:41:53;23.00;99.90
34434;DHT22;34290;48.562;13.384;2023-07-31T05:44:19;24.60;99.60
34434;DHT22;34290;48.562;13.384;2023-07-31T05:46:46;24.20;98.50
34434;DHT22;34290;48.562;13.384;2023-07-31T05:49:13;23.50;99.20
34434;DHT22;34290;48.562;13.384;2023-07-31T05:51:40;24.60;98.10
34434;DHT22;34290;48.562;13.384;2023-07-31T05:54:07;24.50;98.30
34434;DHT22;34290;48.562;13.384;2023-07-31T05:56:34;26.40;97.00
34434;DHT22;34290;48.562;13.384;2023-07-31T05:59:02;26.80;96.50
34434;DHT22;34290;48.562;13.384;2023-07-31T06:01:30;28.50;94.30
34434;DHT22;34290;48.562;13.384;2023-07-31T06:03:57;29.50;93.30
34434;DHT22;34290;48.562;13.384;2023-07-31T06:06:24;30.80;91.20
34434;DHT22;34290;48.562;13.384;2023-07-31T06:08:51;31.30;91.00
34434;DHT22;34290;48.562;13.384;2023-07-31T06:11:19;32.50;87.80
34434;DHT22;34290;48.562;13.384;2023-07-31T06:13:46;32.30;86.70
34434;DHT22;34290;48.562;13.384;2023-07-31T06:16:15;32.10;87.00
34434;DHT22;34290;48.562;13.384;2023-07-31T06:18:42;32.40;86.90
34434;DHT22;34290;48.562;13.384;2023-07-31T06:21:10;32.40;85.20
34434;DHT22;34290;48.562;13.384;2023-07-31T06:23:37;33.70;85.40
34434;DHT22;34290;48.562;13.384;2023-07-31T06:26:04;34.00;83.80
34434;DHT22;34290;48.562;13.384;2023-07-31T06:28:32;34.00;82.90
34434;DHT22;34290;48.562;13.384;2023-07-31T06:30:59;34.00;82.60
34434;DHT22;34290;48.562;13.384;2023-07-31T06:33:28;33.70;78.20
34434;DHT22;34290;48.562;13.384;2023-07-31T06:35:55;33.70;78.50
34434;DHT22;34290;48.562;13.384;2023-07-31T06:38:24;33.50;78.70
34434;DHT22;34290;48.562;13.384;2023-07-31T06:40:51;33.70;79.40
34434;DHT22;34290;48.562;13.384;2023-07-31T06:43:18;33.50;81.00
34434;DHT22;34290;48.562;13.384;2023-07-31T06:45:45;34.00;80.30
34434;DHT22;34290;48.562;13.384;2023-07-31T06:48:14;33.90;79.50
34434;DHT22;34290;48.562;13.384;2023-07-31T06:50:42;32.70;79.80
34434;DHT22;34290;48.562;13.384;2023-07-31T06:53:09;32.70;79.50
34434;DHT22;34290;48.562;13.384;2023-07-31T06:55:36;30.80;79.60
34434;DHT22;34290;48.562;13.384;2023-07-31T07:00:30;26.90;86.80
34434;DHT22;34290;48.562;13.384;2023-07-31T07:02:57;24.90;90.90
34434;DHT22;34290;48.562;13.384;2023-07-31T07:05:24;24.70;92.10
34434;DHT22;34290;48.562;13.384;2023-07-31T07:07:53;24.80;92.40
34434;DHT22;34290;48.562;13.384;2023-07-31T07:10:20;25.60;92.90
34434;DHT22;34290;48.562;13.384;2023-07-31T07:12:47;25.70;92.90
34434;DHT22;34290;48.562;13.384;2023-07-31T07:15:14;27.30;89.00
34434;DHT22;34290;48.562;13.384;2023-07-31T07:17:41;26.90;88.90
34434;DHT22;34290;48.562;13.384;2023-07-31T07:20:09;27.00;90.30
34434;DHT22;34290;48.562;13.384;2023-07-31T07:22:36;26.60;89.20
34434;DHT22;34290;48.562;13.384;2023-07-31T07:25:05;25.60;90.60
34434;DHT22;34290;48.562;13.384;2023-07-31T07:30:00;25.20;91.80
34434;DHT22;34290;48.562;13.384;2023-07-31T07:32:27;24.50;91.70
34434;DHT22;34290;48.562;13.384;2023-07-31T07:34:55;24.20;92.60
34434;DHT22;34290;48.562;13.384;2023-07-31T07:37:22;24.20;92.70
34434;DHT22;34290;48.562;13.384;2023-07-31T07:39:49;24.50;94.20
34434;DHT22;34290;48.562;13.384;2023-07-31T07:42:17;24.50;94.00
34434;DHT22;34290;48.562;13.384;2023-07-31T07:44:44;25.30;92.70
34434;DHT22;34290;48.562;13.384;2023-07-31T07:47:12;25.20;92.80
34434;DHT22;34290;48.562;13.384;2023-07-31T07:49:39;25.20;92.30
34434;DHT22;34290;48.562;13.384;2023-07-31T07:52:07;25.80;92.30
34434;DHT22;34290;48.562;13.384;2023-07-31T07:54:34;26.20;92.10
34434;DHT22;34290;48.562;13.384;2023-07-31T07:57:00;26.50;92.60
34434;DHT22;34290;48.562;13.384;2023-07-31T07:59:29;27.30;90.60
34434;DHT22;34290;48.562;13.384;2023-07-31T08:01:56;27.70;90.10
34434;DHT22;34290;48.562;13.384;2023-07-31T08:04:23;27.70;90.30
34434;DHT22;34290;48.562;13.384;2023-07-31T08:06:50;27.10;89.20
34434;DHT22;34290;48.562;13.384;2023-07-31T08:09:17;26.80;90.00
34434;DHT22;34290;48.562;13.384;2023-07-31T08:11:44;26.70;90.70
34434;DHT22;34290;48.562;13.384;2023-07-31T08:14:11;26.10;91.40
34434;DHT22;34290;48.562;13.384;2023-07-31T08:16:39;25.90;91.40
34434;DHT22;34290;48.562;13.384;2023-07-31T08:19:06;25.20;92.20
34434;DHT22;34290;48.562;13.384;2023-07-31T08:21:33;25.20;92.80
34434;DHT22;34290;48.562;13.384;2023-07-31T08:24:00;25.10;92.40
34434;DHT22;34290;48.562;13.384;2023-07-31T08:26:27;24.80;92.20
34434;DHT22;34290;48.562;13.384;2023-07-31T08:28:53;24.80;92.30
34434;DHT22;34290;48.562;13.384;2023-07-31T08:31:20;24.50;93.00
34434;DHT22;34290;48.562;13.384;2023-07-31T08:33:49;24.50;93.20
34434;DHT22;34290;48.562;13.384;2023-07-31T08:36:16;24.40;92.70
34434;DHT22;34290;48.562;13.384;2023-07-31T08:38:43;24.50;93.10
34434;DHT22;34290;48.562;13.384;2023-07-31T08:41:09;24.20;93.60
34434;DHT22;34290;48.562;13.384;2023-07-31T08:43:38;23.60;93.70
34434;DHT22;34290;48.562;13.384;2023-07-31T08:46:06;23.20;94.70
34434;DHT22;34290;48.562;13.384;2023-07-31T08:48:35;23.30;95.00
34434;DHT22;34290;48.562;13.384;2023-07-31T08:51:05;23.30;94.50
34434;DHT22;34290;48.562;13.384;2023-07-31T08:53:32;23.40;94.70
34434;DHT22;34290;48.562;13.384;2023-07-31T08:55:59;23.40;94.90
34434;DHT22;34290;48.562;13.384;2023-07-31T08:58:28;23.60;94.60
34434;DHT22;34290;48.562;13.384;2023-07-31T09:00:57;23.70;94.20
34434;DHT22;34290;48.562;13.384;2023-07-31T09:03:26;23.90;93.50
34434;DHT22;34290;48.562;13.384;2023-07-31T09:05:54;24.20;93.40
34434;DHT22;34290;48.562;13.384;2023-07-31T09:08:23;24.50;93.60
34434;DHT22;34290;48.562;13.384;2023-07-31T09:10:52;24.80;93.60
34434;DHT22;34290;48.562;13.384;2023-07-31T09:13:20;26.00;92.00
34434;DHT22;34290;48.562;13.384;2023-07-31T09:15:47;26.30;91.60
34434;DHT22;34290;48.562;13.384;2023-07-31T09:18:14;27.00;89.50
34434;DHT22;34290;48.562;13.384;2023-07-31T09:20:44;27.10;90.10
34434;DHT22;34290;48.562;13.384;2023-07-31T09:23:12;27.90;89.90
34434;DHT22;34290;48.562;13.384;2023-07-31T09:25:44;28.80;90.00
34434;DHT22;34290;48.562;13.384;2023-07-31T09:28:11;29.40;90.20
34434;DHT22;34290;48.562;13.384;2023-07-31T09:30:46;30.00;86.40
34434;DHT22;34290;48.562;13.384;2023-07-31T09:33:14;29.30;83.60
34434;DHT22;34290;48.562;13.384;2023-07-31T09:35:41;28.90;85.60
34434;DHT22;34290;48.562;13.384;2023-07-31T09:38:10;28.40;85.80
34434;DHT22;34290;48.562;13.384;2023-07-31T09:40:38;27.80;88.70
34434;DHT22;34290;48.562;13.384;2023-07-31T09:43:09;27.10;90.20
34434;DHT22;34290;48.562;13.384;2023-07-31T09:45:38;26.40;90.00
34434;DHT22;34290;48.562;13.384;2023-07-31T09:48:07;26.10;90.00
34434;DHT22;34290;48.562;13.384;2023-07-31T09:50:37;25.70;90.20
34434;DHT22;34290;48.562;13.384;2023-07-31T09:53:04;25.40;90.80
34434;DHT22;34290;48.562;13.384;2023-07-31T09:55:31;25.80;90.40
34434;DHT22;34290;48.562;13.384;2023-07-31T09:57:58;26.20;90.70
34434;DHT22;34290;48.562;13.384;2023-07-31T10:00:27;26.50;90.40
34434;DHT22;34290;48.562;13.384;2023-07-31T10:02:57;27.00;90.70
34434;DHT22;34290;48.562;13.384;2023-07-31T10:05:33;27.20;88.70
34434;DHT22;34290;48.562;13.384;2023-07-31T10:08:01;27.20;89.00
34434;DHT22;34290;48.562;13.384;2023-07-31T10:10:28;26.60;90.30
34434;DHT22;34290;48.562;13.384;2023-07-31T10:12:56;26.60;90.60
34434;DHT22;34290;48.562;13.384;2023-07-31T10:15:24;26.30;89.80
34434;DHT22;34290;48.562;13.384;2023-07-31T10:17:54;26.00;90.40
34434;DHT22;34290;48.562;13.384;2023-07-31T10:20:22;26.10;90.40
34434;DHT22;34290;48.562;13.384;2023-07-31T10:22:51;25.90;91.00
34434;DHT22;34290;48.562;13.384;2023-07-31T10:25:20;25.80;91.80
34434;DHT22;34290;48.562;13.384;2023-07-31T10:27:49;25.90;91.20
34434;DHT22;34290;48.562;13.384;2023-07-31T10:30:20;25.90;91.50
34434;DHT22;34290;48.562;13.384;2023-07-31T10:32:49;25.70;91.10
34434;DHT22;34290;48.562;13.384;2023-07-31T10:35:19;25.60;91.30
34434;DHT22;34290;48.562;13.384;2023-07-31T10:37:48;25.70;91.10
34434;DHT22;34290;48.562;13.384;2023-07-31T10:40:18;25.70;91.50
34434;DHT22;34290;48.562;13.384;2023-07-31T10:42:47;25.80;91.90
34434;DHT22;34290;48.562;13.384;2023-07-31T10:45:24;25.90;91.80
34434;DHT22;34290;48.562;13.384;2023-07-31T10:47:58;25.80;91.40
34434;DHT22;34290;48.562;13.384;2023-07-31T10:50:30;25.80;91.50
34434;DHT22;34290;48.562;13.384;2023-07-31T10:52:58;26.20;91.90
34434;DHT22;34290;48.562;13.384;2023-07-31T10:55:28;26.30;91.60
34434;DHT22;34290;48.562;13.384;2023-07-31T10:57:56;26.10;91.60
34434;DHT22;34290;48.562;13.384;2023-07-31T11:00:26;26.10;91.70
34434;DHT22;34290;48.562;13.384;2023-07-31T11:02:57;26.10;91.90
34434;DHT22;34290;48.562;13.384;2023-07-31T11:05:50;26.10;90.90
34434;DHT22;34290;48.562;13.384;2023-07-31T11:08:21;26.00;90.90
34434;DHT22;34290;48.562;13.384;2023-07-31T11:10:50;26.20;91.40
34434;DHT22;34290;48.562;13.384;2023-07-31T11:13:17;26.20;92.10
34434;DHT22;34290;48.562;13.384;2023-07-31T11:15:44;26.70;91.10
34434;DHT22;34290;48.562;13.384;2023-07-31T11:18:11;26.70;90.80
34434;DHT22;34290;48.562;13.384;2023-07-31T11:20:39;26.70;91.10
34434;DHT22;34290;48.562;13.384;2023-07-31T11:23:09;26.50;90.40
34434;DHT22;34290;48.562;13.384;2023-07-31T11:25:37;26.80;90.60
34434;DHT22;34290;48.562;13.384;2023-07-31T11:28:07;26.80;90.70
34434;DHT22;34290;48.562;13.384;2023-07-31T11:30:34;26.50;91.70
34434;DHT22;34290;48.562;13.384;2023-07-31T11:33:03;26.70;90.90
34434;DHT22;34290;48.562;13.384;2023-07-31T11:35:31;26.00;92.00
34434;DHT22;34290;48.562;13.384;2023-07-31T11:37:59;26.20;92.30
34434;DHT22;34290;48.562;13.384;2023-07-31T11:40:28;26.10;91.90
34434;DHT22;34290;48.562;13.384;2023-07-31T11:42:56;26.30;93.20
34434;DHT22;34290;48.562;13.384;2023-07-31T11:45:26;26.70;91.90
34434;DHT22;34290;48.562;13.384;2023-07-31T11:47:55;26.60;89.80
34434;DHT22;34290;48.562;13.384;2023-07-31T11:50:23;26.60;90.20
34434;DHT22;34290;48.562;13.384;2023-07-31T11:52:54;26.50;89.80
34434;DHT22;34290;48.562;13.384;2023-07-31T11:55:22;26.50;91.40
34434;DHT22;34290;48.562;13.384;2023-07-31T11:57:52;26.80;91.40
34434;DHT22;34290;48.562;13.384;2023-07-31T12:00:21;26.70;91.60
34434;DHT22;34290;48.562;13.384;2023-07-31T12:02:50;26.70;91.30
34434;DHT22;34290;48.562;13.384;2023-07-31T12:05:17;26.50;91.90
34434;DHT22;34290;48.562;13.384;2023-07-31T12:07:46;26.60;92.20
34434;DHT22;34290;48.562;13.384;2023-07-31T12:10:23;26.80;92.30
34434;DHT22;34290;48.562;13.384;2023-07-31T12:12:59;26.90;91.70
34434;DHT22;34290;48.562;13.384;2023-07-31T12:15:34;27.30;90.90
34434;DHT22;34290;48.562;13.384;2023-07-31T12:18:04;27.30;91.00
34434;DHT22;34290;48.562;13.384;2023-07-31T12:20:32;27.10;89.70
34434;DHT22;34290;48.562;13.384;2023-07-31T12:22:59;26.90;90.10
34434;DHT22;34290;48.562;13.384;2023-07-31T12:25:30;26.70;89.40
34434;DHT22;34290;48.562;13.384;2023-07-31T12:28:04;26.60;89.90
34434;DHT22;34290;48.562;13.384;2023-07-31T12:30:33;26.40;89.20
34434;DHT22;34290;48.562;13.384;2023-07-31T12:33:04;26.00;90.20
34434;DHT22;34290;48.562;13.384;2023-07-31T12:35:38;26.60;91.70
34434;DHT22;34290;48.562;13.384;2023-07-31T12:38:07;26.60;91.60
34434;DHT22;34290;48.562;13.384;2023-07-31T12:40:37;26.70;91.30
34434;DHT22;34290;48.562;13.384;2023-07-31T12:43:06;26.80;90.30
34434;DHT22;34290;48.562;13.384;2023-07-31T12:45:33;26.90;89.00
34434;DHT22;34290;48.562;13.384;2023-07-31T12:48:00;26.80;90.00
34434;DHT22;34290;48.562;13.384;2023-07-31T12:50:28;27.20;90.10
34434;DHT22;34290;48.562;13.384;2023-07-31T12:52:55;27.30;88.50
34434;DHT22;34290;48.562;13.384;2023-07-31T12:55:22;27.00;87.60
34434;DHT22;34290;48.562;13.384;2023-07-31T12:57:49;26.80;87.90
34434;DHT22;34290;48.562;13.384;2023-07-31T13:00:18;27.00;88.10
34434;DHT22;34290;48.562;13.384;2023-07-31T13:02:45;27.00;88.20
34434;DHT22;34290;48.562;13.384;2023-07-31T13:05:12;27.00;87.40
34434;DHT22;34290;48.562;13.384;2023-07-31T13:07:39;27.00;87.00
34434;DHT22;34290;48.562;13.384;2023-07-31T13:10:07;26.80;87.10
34434;DHT22;34290;48.562;13.384;2023-07-31T13:12:35;26.80;90.00
34434;DHT22;34290;48.562;13.384;2023-07-31T13:15:02;26.80;90.00
34434;DHT22;34290;48.562;13.384;2023-07-31T13:17:30;26.80;88.30
34434;DHT22;34290;48.562;13.384;2023-07-31T13:19:57;27.00;89.70
34434;DHT22;34290;48.562;13.384;2023-07-31T13:22:25;27.20;88.80
34434;DHT22;34290;48.562;13.384;2023-07-31T13:24:52;27.30;87.50
34434;DHT22;34290;48.562;13.384;2023-07-31T13:27:19;27.30;86.80
34434;DHT22;34290;48.562;13.384;2023-07-31T13:29:47;27.30;88.10
34434;DHT22;34290;48.562;13.384;2023-07-31T13:32:15;27.30;86.80
34434;DHT22;34290;48.562;13.384;2023-07-31T13:34:43;27.40;90.40
34434;DHT22;34290;48.562;13.384;2023-07-31T13:37:10;27.50;86.80
34434;DHT22;34290;48.562;13.384;2023-07-31T13:39:37;27.40;85.90
34434;DHT22;34290;48.562;13.384;2023-07-31T13:42:05;27.20;86.10
34434;DHT22;34290;48.562;13.384;2023-07-31T13:44:33;27.10;87.70
34434;DHT22;34290;48.562;13.384;2023-07-31T13:47:01;26.60;85.90
34434;DHT22;34290;48.562;13.384;2023-07-31T13:49:29;26.40;86.40
34434;DHT22;34290;48.562;13.384;2023-07-31T13:51:58;26.00;86.90
34434;DHT22;34290;48.562;13.384;2023-07-31T13:54:25;26.10;88.40
34434;DHT22;34290;48.562;13.384;2023-07-31T13:56:52;26.30;88.70
34434;DHT22;34290;48.562;13.384;2023-07-31T13:59:19;26.30;89.30
34434;DHT22;34290;48.562;13.384;2023-07-31T14:01:47;26.40;89.30
34434;DHT22;34290;48.562;13.384;2023-07-31T14:04:14;26.50;90.40
34434;DHT22;34290;48.562;13.384;2023-07-31T14:06:43;26.50;86.30
34434;DHT22;34290;48.562;13.384;2023-07-31T14:09:11;26.30;86.00
34434;DHT22;34290;48.562;13.384;2023-07-31T14:11:40;26.00;86.70
34434;DHT22;34290;48.562;13.384;2023-07-31T14:14:06;25.90;88.20
34434;DHT22;34290;48.562;13.384;2023-07-31T14:16:35;25.80;87.60
34434;DHT22;34290;48.562;13.384;2023-07-31T14:19:02;25.80;90.00
34434;DHT22;34290;48.562;13.384;2023-07-31T14:21:29;25.90;90.40
34434;DHT22;34290;48.562;13.384;2023-07-31T14:23:56;25.90;89.60
34434;DHT22;34290;48.562;13.384;2023-07-31T14:26:24;25.90;88.20
34434;DHT22;34290;48.562;13.384;2023-07-31T14:28:51;25.90;89.30
34434;DHT22;34290;48.562;13.384;2023-07-31T14:31:18;25.90;90.60
34434;DHT22;34290;48.562;13.384;2023-07-31T14:33:45;26.00;89.80
34434;DHT22;34290;48.562;13.384;2023-07-31T14:36:12;25.80;86.80
34434;DHT22;34290;48.562;13.384;2023-07-31T14:38:39;25.80;88.80
34434;DHT22;34290;48.562;13.384;2023-07-31T14:41:06;25.80;90.20
34434;DHT22;34290;48.562;13.384;2023-07-31T14:43:34;25.80;90.30
34434;DHT22;34290;48.562;13.384;2023-07-31T14:46:01;26.00;90.10
34434;DHT22;34290;48.562;13.384;2023-07-31T14:48:28;26.00;90.10
34434;DHT22;34290;48.562;13.384;2023-07-31T14:50:55;26.00;90.40
34434;DHT22;34290;48.562;13.384;2023-07-31T14:53:22;26.00;90.90
34434;DHT22;34290;48.562;13.384;2023-07-31T14:55:49;25.70;90.00
34434;DHT22;34290;48.562;13.384;2023-07-31T14:58:16;25.70;90.70
34434;DHT22;34290;48.562;13.384;2023-07-31T15:00:45;25.60;88.90
34434;DHT22;34290;48.562;13.384;2023-07-31T15:03:12;25.60;90.00
34434;DHT22;34290;48.562;13.384;2023-07-31T15:05:39;25.40;90.30
34434;DHT22;34290;48.562;13.384;2023-07-31T15:08:06;25.40;90.60
34434;DHT22;34290;48.562;13.384;2023-07-31T15:10:33;25.30;89.20
34434;DHT22;34290;48.562;13.384;2023-07-31T15:13:00;25.20;89.90
34434;DHT22;34290;48.562;13.384;2023-07-31T15:15:28;25.00;90.30
34434;DHT22;34290;48.562;13.384;2023-07-31T15:17:56;24.90;90.50
34434;DHT22;34290;48.562;13.384;2023-07-31T15:20:23;24.90;90.80
34434;DHT22;34290;48.562;13.384;2023-07-31T15:22:50;24.90;90.60
34434;DHT22;34290;48.562;13.384;2023-07-31T15:25:17;25.00;91.30
34434;DHT22;34290;48.562;13.384;2023-07-31T15:27:44;25.00;90.70
34434;DHT22;34290;48.562;13.384;2023-07-31T15:30:12;25.00;90.80
34434;DHT22;34290;48.562;13.384;2023-07-31T15:32:39;25.10;91.60
34434;DHT22;34290;48.562;13.384;2023-07-31T15:35:13;25.10;91.20
34434;DHT22;34290;48.562;13.384;2023-07-31T15:37:41;25.20;91.10